Julian, CA (92036)

6:39 AM PDT on August 02, 2015 (GMT -0700)
Pinezanita RV Park & Campgrounds | | Change Station
CLOSE
Current Station
Personal Weather Station
Location: Julian, CA
Elevation: 4698 ft
Nearby Weather Stations

Elev 4698 ft 33.04 °N, 116.56 °W | Updated 8 seconds ago

Partly Cloudy
Partly Cloudy
62.2 °F
Feels Like 62.2 °F
N
2.0
Wind Variable Wind from SW
Gusts 4.0 mph

Today
High -- | Low -- °F
--% Chance of Precip.
Yesterday
High -- | Low -- °F
Precip. -- in
6:00 AM 7:44 PM
Waning Gibbous, 94% visible
Pressure 29.83 in
Visibility -9999.0 miles
Clouds
Dew Point 24 °F
Humidity 23%
Rainfall 0.00 in
Snow Depth Not available.
UV Not available.
Pollen 4.60 out of 12
Air Quality Not available.
Flu Activity Not available.
METAR KCZZ 021252Z AUTO 04006KT 12/06 A2992 RMK AO1 SLP100 T01170061

More Conditions Fewer Conditions

Pressure 29.83 in
Visibility -9999.0 miles
Clouds
Dew Point 24 °F
Humidity 23%
Rainfall 0.00 in
Snow Depth Not available.
UV Not available.
Pollen 4.60 out of 12
Air Quality Not available.
Flu Activity Not available.
METAR KCZZ 021252Z AUTO 04006KT 12/06 A2992 RMK AO1 SLP100 T01170061

More Conditions Fewer Conditions

10-Day Weather Forecast

×

Almanac

Astronomy

Aug. 02, 2015 Rise Set
Actual Time
Civil Twilight
Nautical Twilight
Astronomical Twilight
Moon
Length of Visible Light
Length of Day
Tomorrow will be .
, % of the Moon is Illuminated

Today's Extremes

State Highs State Lows

Community

WunderPhotos

Upload Photos

1,843,246 photos uploaded!

WunderBlogs® & News

Nearby

Air Quality

  Air Quality AQ Index Pollutant
Not available.

Snow Depth

Station Depth Elevation

Earthquake Activity

City Distance Mag. Time & Date
Minimum magnitude displayed is 2.5.

Coastal Water Temperatures

Place Temperature

Stations

Nearby Weather Stations

Station Location Temp. Windchill Dew Point Humidity Wind Precip. Elev Updated Type